createdAt,value
2022-08-25T00:00:20.306Z,99729.22
2022-08-25T00:02:55.638Z,99732.78
2022-08-25T00:05:33.516Z,99729.63
2022-08-25T00:08:02.070Z,99727.97
2022-08-25T00:10:30.603Z,99729.84
2022-08-25T00:12:58.646Z,99735.06
2022-08-25T00:15:26.674Z,99732.56
2022-08-25T00:17:56.321Z,99727.63
2022-08-25T00:20:25.350Z,99719.22
2022-08-25T00:22:53.682Z,99731.00
2022-08-25T00:25:23.544Z,99737.63
2022-08-25T00:27:52.123Z,99729.91
2022-08-25T00:30:20.191Z,99729.81
2022-08-25T00:32:52.562Z,99718.00
2022-08-25T00:35:27.217Z,99717.84
2022-08-25T00:37:55.971Z,99714.56
2022-08-25T00:40:25.358Z,99720.50
2022-08-25T00:42:54.402Z,99722.88
2022-08-25T00:45:23.206Z,99725.34
2022-08-25T00:47:51.144Z,99717.66
2022-08-25T00:50:19.136Z,99720.16
2022-08-25T00:52:54.013Z,99709.00
2022-08-25T00:55:25.968Z,99712.38
2022-08-25T00:57:58.515Z,99716.63
2022-08-25T01:00:31.276Z,99718.34
2022-08-25T01:03:00.258Z,99710.69
2022-08-25T01:05:29.693Z,99709.03
2022-08-25T01:08:03.029Z,99711.53
2022-08-25T01:10:36.275Z,99715.78
2022-08-25T01:13:16.438Z,99712.50
2022-08-25T01:15:45.358Z,99727.84
2022-08-25T01:18:13.299Z,99721.00
2022-08-25T01:20:41.719Z,99717.59
2022-08-25T01:23:11.009Z,99722.78
2022-08-25T01:25:46.919Z,99713.44
2022-08-25T01:28:15.432Z,99709.16
2022-08-25T01:30:43.577Z,99702.38
2022-08-25T01:33:13.365Z,99709.16
2022-08-25T01:35:42.129Z,99699.94
2022-08-25T01:38:11.569Z,99710.09
2022-08-25T01:40:40.977Z,99705.91
2022-08-25T01:43:17.362Z,99706.00
2022-08-25T01:45:49.412Z,99710.31
2022-08-25T01:48:17.844Z,99706.94
2022-08-25T01:50:45.756Z,99712.97
2022-08-25T01:53:23.099Z,99706.38
2022-08-25T01:55:55.827Z,99696.34
2022-08-25T01:58:27.217Z,99710.63
2022-08-25T02:00:58.700Z,99716.63
2022-08-25T02:03:27.576Z,99714.13
2022-08-25T02:05:57.245Z,99715.00
2022-08-25T02:08:26.827Z,99713.41
2022-08-25T02:10:56.333Z,99715.97
2022-08-25T02:13:31.307Z,99711.78
2022-08-25T02:16:02.276Z,99715.22
2022-08-25T02:18:30.663Z,99712.59
2022-08-25T02:20:58.752Z,99702.44
2022-08-25T02:23:28.355Z,99712.06
2022-08-25T02:25:57.191Z,99706.94
2022-08-25T02:28:25.695Z,99703.44
2022-08-25T02:30:58.732Z,99698.25
2022-08-25T02:33:29.687Z,99702.41
2022-08-25T02:35:59.410Z,99696.44
2022-08-25T02:38:29.663Z,99709.13
2022-08-25T02:40:59.781Z,99705.06
2022-08-25T02:43:28.889Z,99695.81
2022-08-25T02:45:57.414Z,99695.78
2022-08-25T02:48:25.348Z,99700.78
2022-08-25T02:50:53.990Z,99699.88
2022-08-25T02:53:22.463Z,99688.84
2022-08-25T02:55:51.749Z,99691.47
2022-08-25T02:58:19.847Z,99683.91
2022-08-25T03:00:48.578Z,99689.84
2022-08-25T03:03:17.519Z,99694.94
2022-08-25T03:05:45.465Z,99680.56
2022-08-25T03:08:13.551Z,99689.81
2022-08-25T03:10:41.519Z,99693.22
2022-08-25T03:13:10.882Z,99686.41
2022-08-25T03:15:38.811Z,99689.81
2022-08-25T03:18:08.660Z,99671.28
2022-08-25T03:20:36.728Z,99686.44
2022-08-25T03:23:05.371Z,99683.09
2022-08-25T03:26:05.313Z,99681.50
2022-08-25T03:28:34.708Z,99684.28
2022-08-25T03:31:02.944Z,99685.16
2022-08-25T03:33:31.728Z,99677.66
2022-08-25T03:36:00.407Z,99686.94
2022-08-25T03:38:28.790Z,99697.06
2022-08-25T03:40:56.767Z,99691.94
2022-08-25T03:43:24.641Z,99700.28
2022-08-25T03:45:54.043Z,99699.41
2022-08-25T03:48:21.997Z,99701.13
2022-08-25T03:50:52.280Z,99701.09
2022-08-25T03:53:21.215Z,99701.81
2022-08-25T03:55:49.330Z,99699.19
2022-08-25T03:58:18.068Z,99699.16
2022-08-25T04:00:46.226Z,99692.25
2022-08-25T04:03:15.565Z,99691.31
2022-08-25T04:05:43.454Z,99692.06
2022-08-25T04:08:11.308Z,99686.91
2022-08-25T04:10:39.348Z,99680.94
2022-08-25T04:13:07.342Z,99684.22
2022-08-25T04:15:36.414Z,99687.50
2022-08-25T04:18:04.830Z,99684.88
2022-08-25T04:20:34.128Z,99692.50
2022-08-25T04:23:02.521Z,99687.28
2022-08-25T04:25:31.352Z,99679.63
2022-08-25T04:27:59.491Z,99675.34
2022-08-25T04:30:27.565Z,99681.31
2022-08-25T04:32:55.847Z,99676.25
2022-08-25T04:35:24.868Z,99672.13
2022-08-25T04:37:54.156Z,99671.38
2022-08-25T04:40:26.760Z,99673.97
2022-08-25T04:42:57.190Z,99667.16
2022-08-25T04:45:25.182Z,99662.06
2022-08-25T04:47:55.065Z,99670.56
2022-08-25T04:50:23.142Z,99665.41
2022-08-25T04:52:51.028Z,99646.03
2022-08-25T04:55:20.281Z,99664.50
2022-08-25T04:57:48.565Z,99672.84
2022-08-25T05:00:18.079Z,99663.44
2022-08-25T05:02:46.331Z,99668.44
2022-08-25T05:05:14.226Z,99669.22
2022-08-25T05:07:42.195Z,99663.16
2022-08-25T05:10:10.124Z,99664.03
2022-08-25T05:12:39.448Z,99669.09
2022-08-25T05:15:23.735Z,99674.22
2022-08-25T05:17:55.687Z,99679.38
2022-08-25T05:20:24.378Z,99671.75
2022-08-25T05:22:52.365Z,99671.94
2022-08-25T05:25:20.471Z,99674.56
2022-08-25T05:27:49.996Z,99666.94
2022-08-25T05:30:18.019Z,99676.91
2022-08-25T05:32:45.952Z,99676.69
2022-08-25T05:35:13.929Z,99671.59
2022-08-25T05:37:41.809Z,99673.38
2022-08-25T05:40:10.981Z,99665.09
2022-08-25T05:42:39.085Z,99666.78
2022-08-25T05:45:09.850Z,99661.81
2022-08-25T05:47:43.124Z,99665.22
2022-08-25T05:50:11.652Z,99668.56
2022-08-25T05:52:39.959Z,99673.59
2022-08-25T05:55:08.616Z,99658.19
2022-08-25T05:57:36.997Z,99668.91
2022-08-25T06:00:06.913Z,99672.59
2022-08-25T06:02:41.364Z,99670.38
2022-08-25T06:05:10.450Z,99666.50
2022-08-25T06:07:38.549Z,99671.25
2022-08-25T06:10:11.321Z,99659.31
2022-08-25T06:12:40.820Z,99667.28
2022-08-25T06:15:12.643Z,99666.69
2022-08-25T06:17:43.028Z,99666.69
2022-08-25T06:20:14.198Z,99660.88
2022-08-25T06:22:42.987Z,99677.72
2022-08-25T06:25:12.949Z,99671.78
2022-08-25T06:27:41.290Z,99672.88
2022-08-25T06:30:12.680Z,99676.34
2022-08-25T06:32:46.217Z,99671.47
2022-08-25T06:35:19.680Z,99675.81
2022-08-25T06:37:48.452Z,99669.09
2022-08-25T06:40:17.376Z,99676.59
2022-08-25T06:42:49.721Z,99683.19
2022-08-25T06:45:19.415Z,99690.69
2022-08-25T06:47:48.867Z,99690.50
2022-08-25T06:50:16.846Z,99690.38
2022-08-25T06:52:44.812Z,99690.31
2022-08-25T06:55:13.071Z,99685.28
2022-08-25T06:57:40.950Z,99684.44
2022-08-25T07:00:10.807Z,99689.47
2022-08-25T07:02:40.520Z,99681.00
2022-08-25T07:05:13.302Z,99685.09
2022-08-25T07:07:46.424Z,99684.91
2022-08-25T07:10:14.662Z,99684.72
2022-08-25T07:12:47.332Z,99690.50
2022-08-25T07:15:20.498Z,99675.09
2022-08-25T07:17:50.106Z,99679.22
2022-08-25T07:20:19.766Z,99685.88
2022-08-25T07:22:48.593Z,99689.28
2022-08-25T07:25:17.862Z,99687.59
2022-08-25T07:27:46.325Z,99688.34
2022-08-25T07:30:15.216Z,99684.88
2022-08-25T07:32:43.438Z,99684.06
2022-08-25T07:35:19.053Z,99682.44
2022-08-25T07:37:50.750Z,99682.44
2022-08-25T07:40:22.524Z,99685.69
2022-08-25T07:42:52.933Z,99685.50
2022-08-25T07:45:25.419Z,99691.38
2022-08-25T07:47:53.824Z,99687.09
2022-08-25T07:50:22.375Z,99686.84
2022-08-25T07:52:55.439Z,99681.59
2022-08-25T07:55:25.966Z,99684.81
2022-08-25T07:57:57.358Z,99689.84
2022-08-25T08:00:29.810Z,99676.28
2022-08-25T08:02:58.514Z,99682.13
2022-08-25T08:05:27.544Z,99682.03
2022-08-25T08:07:57.596Z,99681.97
2022-08-25T08:11:03.154Z,99687.72
2022-08-25T08:13:18.355Z,99679.06
2022-08-25T08:15:47.555Z,99687.56
2022-08-25T08:18:16.131Z,99684.88
2022-08-25T08:20:45.784Z,99687.38
2022-08-25T08:23:15.544Z,99687.28
2022-08-25T08:25:44.145Z,99689.63
2022-08-25T08:28:12.067Z,99687.00
2022-08-25T08:30:53.108Z,99687.72
2022-08-25T08:33:24.429Z,99687.59
2022-08-25T08:35:59.217Z,99685.84
2022-08-25T08:38:29.140Z,99694.34
2022-08-25T08:41:24.187Z,99679.16
2022-08-25T08:43:57.493Z,99692.41
2022-08-25T08:46:38.758Z,99693.22
2022-08-25T08:49:22.894Z,99687.16
2022-08-25T08:52:00.420Z,99673.63
2022-08-25T08:54:34.183Z,99690.38
2022-08-25T08:57:10.400Z,99688.59
2022-08-25T08:59:46.508Z,99691.81
2022-08-25T09:02:41.079Z,99692.47
2022-08-25T09:05:19.218Z,99699.06
2022-08-25T09:07:54.877Z,99692.19
2022-08-25T09:10:27.050Z,99688.00
2022-08-25T09:13:02.956Z,99686.06
2022-08-25T09:15:58.054Z,99679.16
2022-08-25T09:18:41.100Z,99685.00
2022-08-25T09:21:27.952Z,99679.00
2022-08-25T09:24:14.082Z,99679.78
2022-08-25T09:26:55.259Z,99676.31
2022-08-25T09:29:29.386Z,99673.69
2022-08-25T09:31:59.840Z,99667.59
2022-08-25T09:34:33.917Z,99659.88
2022-08-25T09:37:02.181Z,99669.88
2022-08-25T09:39:30.236Z,99660.34
2022-08-25T09:42:01.177Z,99656.84
2022-08-25T09:44:33.557Z,99651.59
2022-08-25T09:47:05.253Z,99645.69
2022-08-25T09:49:37.593Z,99654.72
2022-08-25T09:52:35.076Z,99656.28
2022-08-25T09:55:27.091Z,99640.91
2022-08-25T09:57:58.315Z,99648.41
2022-08-25T10:00:31.081Z,99639.06
2022-08-25T10:03:09.205Z,99645.06
2022-08-25T10:05:48.957Z,99643.38
2022-08-25T10:08:31.347Z,99632.84
2022-08-25T10:11:01.336Z,99632.66
2022-08-25T10:13:41.349Z,99623.84
2022-08-25T10:16:24.118Z,99619.06
2022-08-25T10:19:06.669Z,99614.50
2022-08-25T10:21:36.117Z,99618.78
2022-08-25T10:24:05.901Z,99613.84
2022-08-25T10:26:45.857Z,99604.59
2022-08-25T10:29:32.588Z,99613.94
2022-08-25T10:32:10.199Z,99604.38
2022-08-25T10:34:47.221Z,99596.69
2022-08-25T10:37:32.985Z,99606.66
2022-08-25T10:40:16.651Z,99596.44
2022-08-25T10:42:54.605Z,99598.13
2022-08-25T10:45:45.563Z,99599.78
2022-08-25T10:48:44.136Z,99601.13
2022-08-25T10:51:40.075Z,99597.91
2022-08-25T10:54:19.344Z,99596.34
2022-08-25T10:56:58.446Z,99585.31
2022-08-25T10:59:52.021Z,99589.50
2022-08-25T11:03:05.924Z,99581.59
2022-08-25T11:05:41.773Z,99579.50
2022-08-25T11:08:15.234Z,99575.16
2022-08-25T11:10:48.496Z,99574.94
2022-08-25T11:13:26.904Z,99569.53
2022-08-25T11:16:16.660Z,99566.91
2022-08-25T11:18:52.615Z,99572.78
2022-08-25T11:21:28.668Z,99565.97
2022-08-25T11:24:05.785Z,99564.06
2022-08-25T11:26:37.311Z,99564.81
2022-08-25T11:29:11.489Z,99567.34
2022-08-25T11:31:47.361Z,99560.41
2022-08-25T11:34:21.296Z,99550.84
2022-08-25T11:36:54.518Z,99549.91
2022-08-25T11:39:38.460Z,99551.34
2022-08-25T11:42:23.766Z,99546.41
2022-08-25T11:45:07.702Z,99552.13
2022-08-25T11:47:57.679Z,99539.59
2022-08-25T11:50:31.265Z,99539.56
2022-08-25T11:53:04.490Z,99538.66
2022-08-25T11:55:51.322Z,99537.03
2022-08-25T11:58:42.086Z,99526.00
2022-08-25T12:01:13.899Z,99524.94
2022-08-25T12:03:54.977Z,99524.41
2022-08-25T12:06:27.206Z,99520.00
2022-08-25T12:09:21.812Z,99512.81
2022-08-25T12:11:55.767Z,99519.06
2022-08-25T12:14:45.580Z,99514.16
2022-08-25T12:17:37.828Z,99516.31
2022-08-25T12:20:08.208Z,99518.47
2022-08-25T12:22:56.927Z,99521.47
2022-08-25T12:25:50.940Z,99517.56
2022-08-25T12:28:45.429Z,99515.44
2022-08-25T12:31:25.614Z,99518.50
2022-08-25T12:34:10.529Z,99513.16
2022-08-25T12:36:41.139Z,99516.00
2022-08-25T12:39:18.887Z,99515.25
2022-08-25T12:41:58.047Z,99507.19
2022-08-25T12:44:40.956Z,99511.63
2022-08-25T12:47:27.161Z,99507.81
2022-08-25T12:50:33.596Z,99499.69
2022-08-25T12:53:11.480Z,99496.69
2022-08-25T12:55:42.805Z,99490.38
2022-08-25T12:58:12.817Z,99488.94
2022-08-25T13:01:13.266Z,99489.03
2022-08-25T13:04:19.506Z,99490.72
2022-08-25T13:07:14.503Z,99483.94
2022-08-25T13:10:30.445Z,99477.53
2022-08-25T13:13:05.276Z,99470.63
2022-08-25T13:15:41.267Z,99481.28
2022-08-25T13:18:30.975Z,99482.00
2022-08-25T13:21:09.180Z,99477.31
2022-08-25T13:23:41.888Z,99474.66
2022-08-25T13:26:13.359Z,99470.88
2022-08-25T13:28:50.474Z,99471.06
2022-08-25T13:31:22.886Z,99464.09
2022-08-25T13:33:54.675Z,99463.47
2022-08-25T13:36:46.968Z,99458.97
2022-08-25T13:39:45.461Z,99459.38
2022-08-25T13:42:16.090Z,99455.84
2022-08-25T13:44:51.700Z,99457.97
2022-08-25T13:47:43.731Z,99450.50
2022-08-25T13:50:36.702Z,99456.88
2022-08-25T13:53:07.728Z,99453.88
2022-08-25T13:55:50.975Z,99449.47
2022-08-25T13:58:24.406Z,99456.22
2022-08-25T14:01:23.573Z,99449.72
2022-08-25T14:04:19.127Z,99452.22
2022-08-25T14:06:48.824Z,99445.38
2022-08-25T14:09:28.206Z,99449.63
2022-08-25T14:11:58.480Z,99442.97
2022-08-25T14:14:34.938Z,99438.63
2022-08-25T14:17:21.862Z,99439.69
2022-08-25T14:19:56.598Z,99436.97
2022-08-25T14:22:26.145Z,99430.38
2022-08-25T14:24:55.706Z,99439.44
2022-08-25T14:27:23.716Z,99435.97
2022-08-25T14:29:52.904Z,99433.63
2022-08-25T14:32:21.088Z,99427.41
2022-08-25T14:34:49.112Z,99423.06
2022-08-25T14:37:19.984Z,99415.84
2022-08-25T14:39:49.584Z,99427.19
2022-08-25T14:42:17.839Z,99415.47
2022-08-25T14:44:45.802Z,99398.72
2022-08-25T14:47:13.835Z,99412.41
2022-08-25T14:49:45.729Z,99403.47
2022-08-25T14:52:22.693Z,99405.66
2022-08-25T14:54:52.233Z,99411.38
2022-08-25T14:57:20.702Z,99404.31
2022-08-25T14:59:49.970Z,99399.97
2022-08-25T15:02:20.115Z,99403.59
2022-08-25T15:04:52.401Z,99404.63
2022-08-25T15:07:37.759Z,99398.31
2022-08-25T15:10:13.586Z,99403.91
2022-08-25T15:12:47.732Z,99408.88
2022-08-25T15:15:16.324Z,99401.31
2022-08-25T15:17:47.027Z,99395.19
2022-08-25T15:20:18.284Z,99408.13
2022-08-25T15:22:48.103Z,99402.69
2022-08-25T15:25:18.233Z,99402.59
2022-08-25T15:27:46.857Z,99415.97
2022-08-25T15:30:15.971Z,99408.41
2022-08-25T15:32:44.226Z,99393.47
2022-08-25T15:35:16.688Z,99414.63
2022-08-25T15:37:44.540Z,99404.81
2022-08-25T15:40:12.833Z,99401.94
2022-08-25T15:42:42.779Z,99400.84
2022-08-25T15:45:14.366Z,99397.09
2022-08-25T15:47:42.331Z,99396.28
2022-08-25T15:50:14.486Z,99398.38
2022-08-25T15:52:47.607Z,99389.28
2022-08-25T15:55:18.444Z,99397.16
2022-08-25T15:57:49.768Z,99388.81
2022-08-25T16:00:19.333Z,99393.31
2022-08-25T16:02:49.654Z,99393.25
2022-08-25T16:05:18.414Z,99387.88
2022-08-25T16:07:51.813Z,99379.63
2022-08-25T16:10:20.594Z,99376.31
2022-08-25T16:12:51.146Z,99386.69
2022-08-25T16:15:19.161Z,99390.66
2022-08-25T16:17:52.176Z,99384.44
2022-08-25T16:20:20.828Z,99373.53
2022-08-25T16:22:51.455Z,99382.03
2022-08-25T16:25:20.186Z,99384.84
2022-08-25T16:27:50.991Z,99379.38
2022-08-25T16:30:19.068Z,99380.59
2022-08-25T16:32:47.437Z,99387.75
2022-08-25T16:35:15.909Z,99373.56
2022-08-25T16:37:43.937Z,99380.25
2022-08-25T16:40:14.663Z,99371.25
2022-08-25T16:42:43.074Z,99379.41
2022-08-25T16:45:12.793Z,99377.31
2022-08-25T16:47:42.778Z,99373.59
2022-08-25T16:50:11.899Z,99375.22
2022-08-25T16:52:58.238Z,99379.03
2022-08-25T16:55:27.313Z,99378.66
2022-08-25T16:57:56.500Z,99374.38
2022-08-25T17:00:28.880Z,99382.94
2022-08-25T17:02:59.439Z,99381.59
2022-08-25T17:05:28.221Z,99379.19
2022-08-25T17:08:14.362Z,99376.00
2022-08-25T17:10:44.404Z,99378.84
2022-08-25T17:13:13.901Z,99380.00
2022-08-25T17:15:45.032Z,99379.34
2022-08-25T17:18:13.863Z,99383.00
2022-08-25T17:20:43.303Z,99377.19
2022-08-25T17:23:12.326Z,99378.78
2022-08-25T17:25:43.174Z,99383.91
2022-08-25T17:28:12.862Z,99379.59
2022-08-25T17:30:43.463Z,99385.41
2022-08-25T17:33:11.672Z,99369.44
2022-08-25T17:35:40.553Z,99367.34
2022-08-25T17:38:09.091Z,99382.25
2022-08-25T17:40:37.562Z,99382.03
2022-08-25T17:43:09.134Z,99380.84
2022-08-25T17:45:38.135Z,99377.13
2022-08-25T17:48:09.764Z,99376.88
2022-08-25T17:50:39.104Z,99372.09
2022-08-25T17:53:07.525Z,99376.06
2022-08-25T17:55:37.863Z,99372.28
2022-08-25T17:58:05.919Z,99374.47
2022-08-25T18:00:34.991Z,99368.84
2022-08-25T18:03:04.075Z,99384.75
2022-08-25T18:05:35.545Z,99385.03
2022-08-25T18:08:04.268Z,99381.13
2022-08-25T18:10:38.347Z,99397.59
2022-08-25T18:13:06.317Z,99391.00
2022-08-25T18:15:34.516Z,99395.38
2022-08-25T18:18:04.731Z,99394.78
2022-08-25T18:20:34.963Z,99391.59
2022-08-25T18:23:05.832Z,99406.28
2022-08-25T18:25:37.501Z,99411.69
2022-08-25T18:28:10.289Z,99402.50
2022-08-25T18:30:38.923Z,99408.59
2022-08-25T18:33:07.340Z,99407.13
2022-08-25T18:35:36.584Z,99400.47
2022-08-25T18:38:23.494Z,99404.06
2022-08-25T18:40:56.576Z,99409.38
2022-08-25T18:43:26.402Z,99411.31
2022-08-25T18:45:54.979Z,99403.09
2022-08-25T18:48:26.450Z,99406.81
2022-08-25T18:50:56.685Z,99400.31
2022-08-25T18:53:36.747Z,99407.97
2022-08-25T18:56:06.017Z,99414.06
2022-08-25T18:58:34.209Z,99421.25
2022-08-25T19:01:05.570Z,99413.03
2022-08-25T19:03:34.617Z,99415.09
2022-08-25T19:06:04.769Z,99417.06
2022-08-25T19:08:32.985Z,99423.97
2022-08-25T19:11:00.860Z,99424.94
2022-08-25T19:13:28.787Z,99423.28
2022-08-25T19:15:58.035Z,99421.66
2022-08-25T19:18:29.190Z,99416.03
2022-08-25T19:20:59.196Z,99416.78
2022-08-25T19:23:28.693Z,99414.38
2022-08-25T19:25:56.594Z,99419.75
2022-08-25T19:28:26.256Z,99420.00
2022-08-25T19:30:54.196Z,99433.16
2022-08-25T19:33:42.338Z,99425.09
2022-08-25T19:36:10.325Z,99429.81
2022-08-25T19:38:40.947Z,99432.56
2022-08-25T19:41:14.415Z,99428.44
2022-08-25T19:43:56.426Z,99431.72
2022-08-25T19:46:33.223Z,99431.63
2022-08-25T19:49:07.656Z,99431.44
2022-08-25T19:51:37.577Z,99425.09
2022-08-25T19:54:08.939Z,99437.66
2022-08-25T19:56:43.961Z,99428.94
2022-08-25T19:59:22.731Z,99429.47
2022-08-25T20:01:50.815Z,99424.22
2022-08-25T20:04:18.875Z,99425.25
2022-08-25T20:06:48.187Z,99415.16
2022-08-25T20:09:20.929Z,99420.41
2022-08-25T20:12:07.388Z,99414.31
2022-08-25T20:14:36.439Z,99420.28
2022-08-25T20:17:14.628Z,99422.97
2022-08-25T20:19:52.314Z,99423.06
2022-08-25T20:22:24.990Z,99419.84
2022-08-25T20:24:57.994Z,99415.72
2022-08-25T20:27:28.922Z,99386.88
2022-08-25T20:29:56.917Z,99429.59
2022-08-25T20:32:24.870Z,99430.91
2022-08-25T20:34:55.692Z,99428.66
2022-08-25T20:37:23.944Z,99433.78
2022-08-25T20:39:52.774Z,99430.44
2022-08-25T20:42:22.202Z,99430.31
2022-08-25T20:44:50.142Z,99418.28
2022-08-25T20:47:20.510Z,99413.41
2022-08-25T20:49:49.625Z,99421.31
2022-08-25T20:52:18.860Z,99419.03
2022-08-25T20:54:49.384Z,99421.63
2022-08-25T20:57:25.545Z,99419.03
2022-08-25T20:59:56.524Z,99428.44
2022-08-25T21:02:25.535Z,99422.66
2022-08-25T21:04:57.119Z,99426.94
2022-08-25T21:07:25.205Z,99422.59
2022-08-25T21:09:53.294Z,99425.94
2022-08-25T21:12:21.538Z,99419.13
2022-08-25T21:14:49.561Z,99426.09
2022-08-25T21:17:19.494Z,99430.44
2022-08-25T21:22:21.326Z,99415.31
2022-08-25T21:24:51.316Z,99423.50
2022-08-25T21:27:19.636Z,99420.16
2022-08-25T21:29:54.943Z,99422.44
2022-08-25T21:32:25.180Z,99429.94
2022-08-25T21:34:54.537Z,99430.84
2022-08-25T21:37:22.985Z,99425.06
2022-08-25T21:39:51.307Z,99427.16
2022-08-25T21:42:20.171Z,99425.63
2022-08-25T21:44:48.076Z,99425.69
2022-08-25T21:47:15.966Z,99423.06
2022-08-25T21:49:51.255Z,99417.97
2022-08-25T21:52:20.755Z,99422.09
2022-08-25T21:54:48.629Z,99417.75
2022-08-25T21:57:17.971Z,99411.41
2022-08-25T21:59:47.224Z,99413.63
2022-08-25T22:02:19.229Z,99415.13
2022-08-25T22:04:54.072Z,99416.63
2022-08-25T22:07:24.626Z,99414.88
2022-08-25T22:09:53.804Z,99413.88
2022-08-25T22:12:21.835Z,99417.41
2022-08-25T22:14:50.241Z,99419.28
2022-08-25T22:17:21.040Z,99415.72
2022-08-25T22:19:49.180Z,99419.19
2022-08-25T22:22:23.933Z,99410.78
2022-08-25T22:24:52.478Z,99417.69
2022-08-25T22:27:23.368Z,99423.09
2022-08-25T22:29:52.562Z,99405.50
2022-08-25T22:32:21.145Z,99416.28
2022-08-25T22:34:49.541Z,99410.63
2022-08-25T22:37:18.080Z,99416.63
2022-08-25T22:39:47.742Z,99412.28
2022-08-25T22:42:16.406Z,99402.81
2022-08-25T22:44:44.353Z,99408.84
2022-08-25T22:47:12.436Z,99402.09
2022-08-25T22:49:40.916Z,99401.34
2022-08-25T22:52:12.681Z,99397.13
2022-08-25T22:54:42.396Z,99391.28
2022-08-25T22:57:12.887Z,99389.56
2022-08-25T22:59:40.956Z,99384.59
2022-08-25T23:02:09.096Z,99393.19
2022-08-25T23:04:41.144Z,99386.56
2022-08-25T23:07:10.055Z,99383.44
2022-08-25T23:09:38.281Z,99380.31
2022-08-25T23:12:07.093Z,99387.16
2022-08-25T23:14:36.862Z,99381.19
2022-08-25T23:17:07.290Z,99374.72
2022-08-25T23:19:36.038Z,99375.75
2022-08-25T23:22:13.822Z,99375.75
2022-08-25T23:24:46.683Z,99378.31
2022-08-25T23:27:17.060Z,99373.19
2022-08-25T23:29:48.749Z,99375.75
2022-08-25T23:32:17.596Z,99374.19
2022-08-25T23:34:47.253Z,99371.06
2022-08-25T23:37:18.729Z,99367.19
2022-08-25T23:39:47.940Z,99361.59
2022-08-25T23:42:17.780Z,99365.19
2022-08-25T23:44:47.877Z,99364.19
2022-08-25T23:47:16.068Z,99357.25
2022-08-25T23:49:43.951Z,99356.31
2022-08-25T23:52:12.041Z,99356.44
2022-08-25T23:54:40.311Z,99349.66
2022-08-25T23:57:08.851Z,99343.09
2022-08-25T23:59:37.436Z,99351.59
